createdAt,value
2018-03-24T00:00:35.249Z,9.97
2018-03-24T00:01:38.590Z,9.97
2018-03-24T00:02:41.904Z,9.96
2018-03-24T00:03:45.216Z,9.95
2018-03-24T00:04:48.524Z,9.95
2018-03-24T00:05:51.960Z,9.94
2018-03-24T00:06:55.323Z,9.93
2018-03-24T00:07:58.636Z,9.93
2018-03-24T00:09:01.966Z,9.93
2018-03-24T00:10:05.269Z,9.92
2018-03-24T00:11:08.656Z,9.93
2018-03-24T00:12:12.064Z,9.93
2018-03-24T00:13:15.376Z,9.93
2018-03-24T00:14:18.963Z,9.92
2018-03-24T00:15:22.368Z,9.91
2018-03-24T00:16:25.724Z,9.90
2018-03-24T00:17:29.033Z,9.91
2018-03-24T00:18:32.340Z,9.91
2018-03-24T00:19:35.695Z,9.91
2018-03-24T00:20:39.081Z,9.91
2018-03-24T00:21:43.145Z,9.91
2018-03-24T00:22:46.448Z,9.91
2018-03-24T00:23:49.764Z,9.92
2018-03-24T00:24:53.085Z,9.92
2018-03-24T00:25:56.866Z,9.93
2018-03-24T00:27:00.269Z,9.93
2018-03-24T00:28:03.571Z,9.93
2018-03-24T00:29:06.938Z,9.93
2018-03-24T00:30:10.318Z,9.92
2018-03-24T00:31:13.685Z,9.92
2018-03-24T00:32:17.036Z,9.93
2018-03-24T00:33:20.420Z,9.93
2018-03-24T00:34:23.732Z,9.93
2018-03-24T00:35:27.038Z,9.92
2018-03-24T00:36:30.365Z,9.92
2018-03-24T00:37:33.724Z,9.92
2018-03-24T00:38:37.108Z,9.93
2018-03-24T00:39:40.404Z,9.93
2018-03-24T00:40:43.704Z,9.93
2018-03-24T00:41:47.103Z,9.93
2018-03-24T00:42:50.459Z,9.93
2018-03-24T00:43:54.562Z,9.93
2018-03-24T00:44:57.907Z,9.93
2018-03-24T00:46:01.219Z,9.93
2018-03-24T00:47:04.541Z,9.93
2018-03-24T00:48:07.856Z,9.94
2018-03-24T00:49:11.159Z,9.95
2018-03-24T00:50:14.473Z,9.95
2018-03-24T00:51:17.939Z,9.94
2018-03-24T00:52:21.248Z,9.94
2018-03-24T00:53:24.586Z,9.94
2018-03-24T00:54:27.976Z,9.94
2018-03-24T00:55:31.269Z,9.96
2018-03-24T00:56:34.611Z,9.96
2018-03-24T00:57:37.932Z,9.95
2018-03-24T00:58:41.348Z,9.95
2018-03-24T00:59:46.034Z,9.95
2018-03-24T01:00:49.477Z,9.93
2018-03-24T01:01:52.754Z,9.94
2018-03-24T01:02:56.052Z,9.93
2018-03-24T01:03:59.409Z,9.93
2018-03-24T01:05:02.774Z,9.93
2018-03-24T01:06:06.084Z,9.93
2018-03-24T01:07:09.440Z,9.93
2018-03-24T01:08:12.851Z,9.93
2018-03-24T01:09:16.662Z,9.92
2018-03-24T01:10:19.976Z,9.92
2018-03-24T01:11:23.277Z,9.91
2018-03-24T01:12:26.658Z,9.91
2018-03-24T01:13:30.041Z,9.90
2018-03-24T01:14:33.452Z,9.90
2018-03-24T01:15:36.805Z,9.89
2018-03-24T01:16:40.123Z,9.89
2018-03-24T01:17:43.440Z,9.88
2018-03-24T01:18:46.743Z,9.88
2018-03-24T01:19:50.156Z,9.89
2018-03-24T01:20:53.561Z,9.89
2018-03-24T01:21:56.852Z,9.89
2018-03-24T01:23:00.221Z,9.88
2018-03-24T01:24:03.590Z,9.88
2018-03-24T01:25:06.953Z,9.88
2018-03-24T01:26:10.249Z,9.88
2018-03-24T01:27:13.579Z,9.88
2018-03-24T01:28:16.877Z,9.88
2018-03-24T01:29:20.238Z,9.87
2018-03-24T01:30:23.615Z,9.88
2018-03-24T01:31:26.934Z,9.87
2018-03-24T01:32:30.238Z,9.87
2018-03-24T01:33:33.560Z,9.87
2018-03-24T01:34:36.864Z,9.87
2018-03-24T01:35:40.268Z,9.86
2018-03-24T01:36:43.627Z,9.86
2018-03-24T01:37:47.837Z,9.86
2018-03-24T01:38:51.310Z,9.86
2018-03-24T01:39:54.597Z,9.87
2018-03-24T01:40:57.923Z,9.88
2018-03-24T01:42:01.287Z,9.88
2018-03-24T01:43:04.580Z,9.88
2018-03-24T01:44:07.889Z,9.88
2018-03-24T01:45:11.192Z,9.90
2018-03-24T01:46:15.199Z,9.90
2018-03-24T01:47:18.598Z,9.91
2018-03-24T01:48:21.914Z,9.91
2018-03-24T01:49:25.287Z,9.92
2018-03-24T01:50:28.684Z,9.92
2018-03-24T01:51:32.110Z,9.93
2018-03-24T01:52:36.109Z,9.93
2018-03-24T01:53:51.140Z,9.93
2018-03-24T01:54:54.943Z,9.90
2018-03-24T01:55:58.299Z,9.90
2018-03-24T01:57:01.697Z,9.89
2018-03-24T01:58:04.985Z,9.89
2018-03-24T01:59:08.289Z,9.88
2018-03-24T02:00:12.597Z,9.88
2018-03-24T02:01:15.934Z,9.88
2018-03-24T02:02:19.353Z,9.88
2018-03-24T02:03:23.665Z,9.89
2018-03-24T02:04:27.127Z,9.88
2018-03-24T02:05:30.507Z,9.87
2018-03-24T02:06:33.869Z,9.87
2018-03-24T02:07:37.251Z,9.87
2018-03-24T02:08:40.563Z,9.87
2018-03-24T02:09:43.876Z,9.87
2018-03-24T02:10:47.206Z,9.87
2018-03-24T02:11:50.531Z,9.86
2018-03-24T02:12:53.882Z,9.87
2018-03-24T02:13:57.208Z,9.87
2018-03-24T02:15:00.506Z,9.87
2018-03-24T02:16:03.933Z,9.87
2018-03-24T02:17:07.228Z,9.87
2018-03-24T02:18:10.604Z,9.86
2018-03-24T02:19:14.220Z,9.86
2018-03-24T02:20:19.017Z,9.86
2018-03-24T02:21:25.205Z,9.84
2018-03-24T02:22:28.541Z,9.82
2018-03-24T02:23:31.953Z,9.83
2018-03-24T02:24:40.960Z,9.82
2018-03-24T02:25:44.268Z,9.82
2018-03-24T02:26:47.571Z,9.81
2018-03-24T02:27:50.926Z,9.81
2018-03-24T02:28:54.299Z,9.81
2018-03-24T02:29:57.607Z,9.81
2018-03-24T02:31:00.956Z,9.80
2018-03-24T02:32:04.318Z,9.81
2018-03-24T02:33:07.860Z,9.80
2018-03-24T02:34:11.256Z,9.78
2018-03-24T02:35:14.573Z,9.76
2018-03-24T02:36:17.887Z,9.74
2018-03-24T02:37:21.220Z,9.71
2018-03-24T02:38:24.524Z,9.67
2018-03-24T02:39:27.889Z,9.65
2018-03-24T02:40:31.278Z,9.62
2018-03-24T02:41:34.545Z,9.60
2018-03-24T02:42:37.842Z,9.59
2018-03-24T02:43:41.159Z,9.57
2018-03-24T02:44:44.511Z,9.56
2018-03-24T02:45:47.848Z,9.54
2018-03-24T02:46:51.236Z,9.52
2018-03-24T02:47:54.559Z,9.49
2018-03-24T02:48:57.996Z,9.47
2018-03-24T02:50:01.373Z,9.43
2018-03-24T02:51:05.611Z,9.40
2018-03-24T02:52:08.918Z,9.37
2018-03-24T02:53:12.254Z,9.33
2018-03-24T02:54:15.619Z,9.29
2018-03-24T02:55:19.024Z,9.25
2018-03-24T02:56:22.326Z,9.22
2018-03-24T02:57:25.628Z,9.17
2018-03-24T02:58:28.925Z,9.14
2018-03-24T02:59:32.245Z,9.10
2018-03-24T03:00:36.629Z,9.07
2018-03-24T03:01:39.964Z,9.04
2018-03-24T03:02:43.257Z,9.00
2018-03-24T03:03:46.608Z,8.98
2018-03-24T03:04:49.909Z,8.95
2018-03-24T03:05:53.350Z,8.92
2018-03-24T03:06:56.644Z,8.88
2018-03-24T03:07:59.962Z,8.86
2018-03-24T03:09:03.297Z,8.83
2018-03-24T03:10:06.647Z,8.80
2018-03-24T03:11:10.024Z,8.77
2018-03-24T03:12:13.368Z,8.75
2018-03-24T03:13:16.716Z,8.73
2018-03-24T03:14:20.083Z,8.71
2018-03-24T03:15:23.393Z,8.68
2018-03-24T03:16:26.840Z,8.66
2018-03-24T03:17:30.283Z,8.64
2018-03-24T03:18:33.567Z,8.62
2018-03-24T03:19:36.899Z,8.61
2018-03-24T03:20:40.206Z,8.60
2018-03-24T03:21:51.516Z,8.59
2018-03-24T03:22:54.884Z,8.57
2018-03-24T03:23:58.191Z,8.57
2018-03-24T03:25:01.604Z,8.57
2018-03-24T03:26:04.936Z,8.56
2018-03-24T03:27:08.375Z,8.57
2018-03-24T03:28:12.170Z,8.57
2018-03-24T03:29:15.476Z,8.57
2018-03-24T03:32:02.614Z,8.54
2018-03-24T03:33:05.983Z,8.52
2018-03-24T03:34:09.316Z,8.51
2018-03-24T03:35:12.629Z,8.51
2018-03-24T03:36:15.919Z,8.50
2018-03-24T03:37:19.303Z,8.50
2018-03-24T03:38:22.688Z,8.49
2018-03-24T03:39:25.976Z,8.47
2018-03-24T03:40:29.276Z,8.47
2018-03-24T03:41:32.615Z,8.46
2018-03-24T03:42:35.964Z,8.47
2018-03-24T03:43:39.337Z,8.47
2018-03-24T03:44:42.657Z,8.47
2018-03-24T03:45:45.973Z,8.47
2018-03-24T03:46:49.272Z,8.46
2018-03-24T03:47:52.587Z,8.45
2018-03-24T03:48:55.922Z,8.44
2018-03-24T03:49:59.223Z,8.44
2018-03-24T03:51:02.580Z,8.42
2018-03-24T03:52:05.945Z,8.42
2018-03-24T03:53:09.357Z,8.40
2018-03-24T03:54:12.675Z,8.38
2018-03-24T03:55:15.980Z,8.37
2018-03-24T03:56:19.317Z,8.36
2018-03-24T03:57:22.607Z,8.35
2018-03-24T03:58:25.924Z,8.32
2018-03-24T03:59:29.247Z,8.30
2018-03-24T04:00:32.568Z,8.28
2018-03-24T04:01:36.967Z,8.26
2018-03-24T04:02:40.272Z,8.24
2018-03-24T04:03:43.608Z,8.21
2018-03-24T04:04:46.979Z,8.20
2018-03-24T04:05:50.427Z,8.19
2018-03-24T04:06:53.758Z,8.17
2018-03-24T04:07:57.050Z,8.17
2018-03-24T04:09:00.380Z,8.17
2018-03-24T04:10:03.749Z,8.17
2018-03-24T04:11:07.143Z,8.19
2018-03-24T04:12:10.483Z,8.20
2018-03-24T04:13:13.782Z,8.22
2018-03-24T04:14:17.178Z,8.23
2018-03-24T04:15:20.509Z,8.25
2018-03-24T04:16:23.832Z,8.27
2018-03-24T04:17:27.151Z,8.28
2018-03-24T04:18:30.502Z,8.28
2018-03-24T04:19:33.785Z,8.28
2018-03-24T04:20:37.184Z,8.28
2018-03-24T04:21:40.491Z,8.29
2018-03-24T04:22:43.791Z,8.29
2018-03-24T04:23:47.133Z,8.30
2018-03-24T04:24:50.440Z,8.29
2018-03-24T04:25:53.831Z,8.29
2018-03-24T04:26:57.176Z,8.30
2018-03-24T04:28:00.527Z,8.31
2018-03-24T04:29:03.954Z,8.31
2018-03-24T04:30:07.247Z,8.33
2018-03-24T04:31:10.727Z,8.35
2018-03-24T04:32:14.058Z,8.37
2018-03-24T04:33:17.352Z,8.39
2018-03-24T04:34:20.689Z,8.40
2018-03-24T04:35:24.000Z,8.40
2018-03-24T04:36:27.357Z,8.42
2018-03-24T04:37:30.657Z,8.44
2018-03-24T04:38:33.977Z,8.45
2018-03-24T04:39:37.328Z,8.44
2018-03-24T04:40:40.635Z,8.45
2018-03-24T04:41:43.959Z,8.45
2018-03-24T04:42:47.287Z,8.45
2018-03-24T04:43:50.607Z,8.45
2018-03-24T04:44:53.942Z,8.44
2018-03-24T04:45:58.200Z,8.44
2018-03-24T04:47:01.642Z,8.45
2018-03-24T04:48:04.911Z,8.45
2018-03-24T04:49:08.285Z,8.46
2018-03-24T04:50:11.634Z,8.46
2018-03-24T04:51:14.936Z,8.46
2018-03-24T04:52:18.273Z,8.46
2018-03-24T04:53:21.596Z,8.46
2018-03-24T04:54:25.136Z,8.46
2018-03-24T04:55:28.520Z,8.45
2018-03-24T04:56:31.864Z,8.45
2018-03-24T04:57:35.220Z,8.44
2018-03-24T04:58:38.556Z,8.45
2018-03-24T04:59:41.901Z,8.45
2018-03-24T05:00:45.254Z,8.46
2018-03-24T05:01:49.539Z,8.46
2018-03-24T05:02:52.875Z,8.45
2018-03-24T05:03:56.190Z,8.45
2018-03-24T05:04:59.523Z,8.44
2018-03-24T05:06:02.885Z,8.44
2018-03-24T05:07:06.197Z,8.43
2018-03-24T05:08:09.518Z,8.42
2018-03-24T05:09:12.825Z,8.41
2018-03-24T05:10:16.141Z,8.40
2018-03-24T05:11:19.486Z,8.38
2018-03-24T05:12:22.828Z,8.38
2018-03-24T05:13:26.243Z,8.36
2018-03-24T05:14:29.567Z,8.35
2018-03-24T05:15:32.898Z,8.33
2018-03-24T05:16:36.198Z,8.33
2018-03-24T05:17:39.556Z,8.32
2018-03-24T05:18:42.962Z,8.30
2018-03-24T05:19:46.264Z,8.29
2018-03-24T05:20:49.604Z,8.26
2018-03-24T05:21:52.936Z,8.24
2018-03-24T05:22:56.267Z,8.21
2018-03-24T05:23:59.612Z,8.19
2018-03-24T05:25:02.948Z,8.16
2018-03-24T05:26:06.284Z,8.12
2018-03-24T05:27:09.575Z,8.09
2018-03-24T05:28:12.932Z,8.05
2018-03-24T05:29:16.295Z,8.01
2018-03-24T05:30:19.601Z,7.98
2018-03-24T05:31:22.920Z,7.94
2018-03-24T05:32:26.260Z,7.92
2018-03-24T05:33:29.567Z,7.88
2018-03-24T05:34:33.065Z,7.85
2018-03-24T05:35:36.412Z,7.83
2018-03-24T05:36:39.835Z,7.81
2018-03-24T05:37:43.132Z,7.78
2018-03-24T05:38:46.470Z,7.76
2018-03-24T05:39:49.861Z,7.73
2018-03-24T05:40:53.206Z,7.72
2018-03-24T05:41:56.557Z,7.70
2018-03-24T05:42:59.866Z,7.68
2018-03-24T05:44:03.179Z,7.67
2018-03-24T05:45:06.561Z,7.66
2018-03-24T05:46:09.903Z,7.64
2018-03-24T05:47:13.243Z,7.64
2018-03-24T05:48:16.574Z,7.62
2018-03-24T05:49:19.917Z,7.60
2018-03-24T05:50:23.380Z,7.59
2018-03-24T05:51:26.742Z,7.57
2018-03-24T05:52:30.113Z,7.56
2018-03-24T05:53:33.457Z,7.56
2018-03-24T05:54:36.765Z,7.55
2018-03-24T05:55:40.085Z,7.53
2018-03-24T05:56:43.394Z,7.54
2018-03-24T05:57:46.739Z,7.54
2018-03-24T05:58:50.117Z,7.55
2018-03-24T05:59:53.451Z,7.56
2018-03-24T06:00:56.860Z,7.57
2018-03-24T06:02:02.919Z,7.58
2018-03-24T06:03:06.277Z,7.59
2018-03-24T06:04:09.609Z,7.61
2018-03-24T06:05:13.034Z,7.64
2018-03-24T06:06:16.404Z,7.67
2018-03-24T06:07:19.728Z,7.70
2018-03-24T06:08:23.072Z,7.73
2018-03-24T06:09:26.439Z,7.77
2018-03-24T06:10:29.755Z,7.80
2018-03-24T06:11:33.343Z,7.84
2018-03-24T06:12:36.628Z,7.88
2018-03-24T06:13:39.994Z,7.91
2018-03-24T06:14:44.328Z,7.95
2018-03-24T06:15:47.613Z,7.97
2018-03-24T06:16:50.984Z,8.00
2018-03-24T06:17:54.310Z,8.01
2018-03-24T06:18:57.672Z,8.04
2018-03-24T06:20:01.020Z,8.06
2018-03-24T06:21:04.411Z,8.08
2018-03-24T06:22:07.810Z,8.10
2018-03-24T06:23:11.115Z,8.11
2018-03-24T06:24:14.460Z,8.13
2018-03-24T06:25:17.788Z,8.15
2018-03-24T06:26:21.079Z,8.16
2018-03-24T06:27:24.455Z,8.17
2018-03-24T06:28:27.839Z,8.18
2018-03-24T06:29:31.228Z,8.19
2018-03-24T06:30:34.546Z,8.19
2018-03-24T06:31:40.165Z,8.19
2018-03-24T06:32:43.616Z,8.19
2018-03-24T06:33:46.993Z,8.20
2018-03-24T06:34:50.354Z,8.21
2018-03-24T06:35:54.446Z,8.21
2018-03-24T06:36:57.898Z,8.23
2018-03-24T06:38:01.297Z,8.24
2018-03-24T06:39:04.596Z,8.26
2018-03-24T06:40:07.948Z,8.27
2018-03-24T06:41:11.302Z,8.28
2018-03-24T06:42:14.629Z,8.30
2018-03-24T06:43:18.006Z,8.32
2018-03-24T06:44:21.355Z,8.33
2018-03-24T06:45:24.678Z,8.36
2018-03-24T06:46:28.084Z,8.40
2018-03-24T06:47:31.379Z,8.43
2018-03-24T06:48:34.789Z,8.44
2018-03-24T06:49:38.096Z,8.47
2018-03-24T06:50:41.469Z,8.49
2018-03-24T06:51:44.784Z,8.53
2018-03-24T06:52:48.121Z,8.57
2018-03-24T06:53:51.517Z,8.60
2018-03-24T06:54:54.885Z,8.64
2018-03-24T06:55:58.214Z,8.69
2018-03-24T06:57:01.566Z,8.76
2018-03-24T06:58:04.988Z,8.81
2018-03-24T06:59:08.312Z,8.86
2018-03-24T07:00:12.404Z,8.92
2018-03-24T07:01:15.735Z,8.97
2018-03-24T07:02:20.391Z,9.03
2018-03-24T07:03:23.800Z,9.08
2018-03-24T07:04:27.123Z,9.14
2018-03-24T07:05:30.445Z,9.22
2018-03-24T07:06:33.779Z,9.30
2018-03-24T07:07:37.087Z,9.39
2018-03-24T07:08:40.476Z,9.49
2018-03-24T07:09:43.827Z,9.58
2018-03-24T07:10:47.148Z,9.68
2018-03-24T07:11:51.009Z,9.79
2018-03-24T07:12:54.356Z,9.84
2018-03-24T07:13:57.719Z,9.88
2018-03-24T07:15:01.172Z,9.91
2018-03-24T07:16:04.479Z,9.92
2018-03-24T07:17:07.772Z,9.94
2018-03-24T07:18:11.072Z,9.96
2018-03-24T07:19:14.397Z,9.97
2018-03-24T07:20:19.349Z,10.00
2018-03-24T07:21:22.700Z,10.01
2018-03-24T07:22:26.133Z,10.03
2018-03-24T07:23:29.427Z,10.05
2018-03-24T07:24:32.739Z,10.08
2018-03-24T07:25:36.102Z,10.11
2018-03-24T07:26:39.983Z,10.15
2018-03-24T07:27:43.992Z,10.18
2018-03-24T07:28:47.492Z,10.22
2018-03-24T07:29:50.800Z,10.27
2018-03-24T07:30:54.173Z,10.32
2018-03-24T07:31:57.536Z,10.36
2018-03-24T07:33:00.872Z,10.39
2018-03-24T07:34:04.196Z,10.41
2018-03-24T07:35:07.622Z,10.44
2018-03-24T07:36:11.099Z,10.46
2018-03-24T07:37:14.688Z,10.50
2018-03-24T07:38:18.094Z,10.51
2018-03-24T07:39:21.474Z,10.53
2018-03-24T07:40:24.818Z,10.55
2018-03-24T07:41:28.848Z,10.54
2018-03-24T07:42:32.176Z,10.54
2018-03-24T07:43:35.531Z,10.54
2018-03-24T07:44:39.412Z,10.54
2018-03-24T07:45:42.756Z,10.55
2018-03-24T07:46:46.171Z,10.57
2018-03-24T07:47:49.486Z,10.61
2018-03-24T07:48:52.833Z,10.63
2018-03-24T07:49:56.245Z,10.65
2018-03-24T07:50:59.585Z,10.67
2018-03-24T07:52:02.976Z,10.69
2018-03-24T07:53:06.304Z,10.71
2018-03-24T07:54:10.263Z,10.73
2018-03-24T07:55:14.771Z,10.74
2018-03-24T07:56:18.068Z,10.75
2018-03-24T07:57:21.481Z,10.77
2018-03-24T07:58:24.813Z,10.79
2018-03-24T07:59:28.179Z,10.80
2018-03-24T08:00:31.537Z,10.79
2018-03-24T08:01:35.544Z,10.78
2018-03-24T08:02:40.532Z,10.76
2018-03-24T08:03:46.140Z,10.71
2018-03-24T08:04:49.591Z,10.68
2018-03-24T08:05:52.907Z,10.63
2018-03-24T08:06:56.314Z,10.59
2018-03-24T08:07:59.641Z,10.53
2018-03-24T08:09:03.014Z,10.49
2018-03-24T08:10:06.342Z,10.44
2018-03-24T08:11:09.865Z,10.41
2018-03-24T08:12:13.184Z,10.37
2018-03-24T08:13:16.652Z,10.34
2018-03-24T08:14:20.056Z,10.31
2018-03-24T08:15:24.328Z,10.27
2018-03-24T08:16:27.624Z,10.24
2018-03-24T08:17:30.969Z,10.21
2018-03-24T08:18:34.364Z,10.18
2018-03-24T08:19:37.708Z,10.17
2018-03-24T08:20:41.054Z,10.17
2018-03-24T08:21:44.531Z,10.17
2018-03-24T08:22:47.925Z,10.17
2018-03-24T08:23:51.293Z,10.17
2018-03-24T08:24:54.638Z,10.19
2018-03-24T08:25:57.987Z,10.21
2018-03-24T08:27:01.464Z,10.22
2018-03-24T08:28:05.124Z,10.24
2018-03-24T08:29:08.537Z,10.24
2018-03-24T08:30:11.887Z,10.25
2018-03-24T08:31:15.233Z,10.27
2018-03-24T08:32:18.555Z,10.27
2018-03-24T08:33:21.871Z,10.28
2018-03-24T08:34:25.497Z,10.29
2018-03-24T08:35:29.262Z,10.30
2018-03-24T08:36:32.628Z,10.30
2018-03-24T08:37:35.943Z,10.30
2018-03-24T08:38:39.260Z,10.32
2018-03-24T08:39:43.554Z,10.33
2018-03-24T08:40:46.861Z,10.33
2018-03-24T08:41:50.218Z,10.35
2018-03-24T08:42:55.270Z,10.37
2018-03-24T08:43:58.566Z,10.37
2018-03-24T08:45:02.899Z,10.38
2018-03-24T08:46:06.246Z,10.40
2018-03-24T08:47:09.565Z,10.40
2018-03-24T08:48:12.956Z,10.41
2018-03-24T08:49:16.378Z,10.41
2018-03-24T08:50:19.727Z,10.42
2018-03-24T08:51:23.028Z,10.44
2018-03-24T08:52:26.344Z,10.45
2018-03-24T08:53:29.679Z,10.47
2018-03-24T08:54:33.016Z,10.49
2018-03-24T08:55:36.424Z,10.51
2018-03-24T08:56:39.756Z,10.52
2018-03-24T08:57:43.077Z,10.53
2018-03-24T08:58:46.456Z,10.54
2018-03-24T08:59:49.840Z,10.54
2018-03-24T09:00:53.325Z,10.55
2018-03-24T09:01:57.452Z,10.56
2018-03-24T09:03:02.069Z,10.56
2018-03-24T09:04:05.406Z,10.56
2018-03-24T09:05:08.765Z,10.57
2018-03-24T09:06:12.144Z,10.57
2018-03-24T09:07:15.458Z,10.58
2018-03-24T09:08:18.795Z,10.59
2018-03-24T09:09:22.114Z,10.61
2018-03-24T09:10:25.467Z,10.63
2018-03-24T09:11:28.862Z,10.64
2018-03-24T09:12:32.257Z,10.66
2018-03-24T09:13:36.465Z,10.66
2018-03-24T09:14:39.826Z,10.66
2018-03-24T09:15:43.266Z,10.66
2018-03-24T09:16:46.613Z,10.67
2018-03-24T09:17:50.003Z,10.67
2018-03-24T09:18:53.351Z,10.68
2018-03-24T09:19:56.681Z,10.69
2018-03-24T09:21:00.023Z,10.70
2018-03-24T09:22:03.688Z,10.71
2018-03-24T09:23:07.034Z,10.73
2018-03-24T09:24:10.358Z,10.76
2018-03-24T09:25:13.704Z,10.78
2018-03-24T09:26:17.061Z,10.80
2018-03-24T09:27:20.425Z,10.81
2018-03-24T09:28:23.735Z,10.82
2018-03-24T09:29:27.067Z,10.84
2018-03-24T09:30:30.400Z,10.86
2018-03-24T09:31:33.730Z,10.88
2018-03-24T09:32:37.155Z,10.90
2018-03-24T09:33:40.546Z,10.91
2018-03-24T09:34:43.904Z,10.94
2018-03-24T09:35:47.310Z,10.96
2018-03-24T09:36:51.250Z,10.98
2018-03-24T09:37:54.884Z,11.01
2018-03-24T09:38:58.225Z,11.03
2018-03-24T09:40:01.545Z,11.05
2018-03-24T09:41:04.898Z,11.07
2018-03-24T09:42:08.204Z,11.08
2018-03-24T09:43:11.564Z,11.09
2018-03-24T09:44:14.945Z,11.12
2018-03-24T09:45:18.239Z,11.14
2018-03-24T09:46:21.580Z,11.16
2018-03-24T09:47:24.952Z,11.18
2018-03-24T09:48:28.226Z,11.20
2018-03-24T09:49:31.569Z,11.23
2018-03-24T09:50:35.715Z,11.25
2018-03-24T09:51:39.015Z,11.27
2018-03-24T09:52:42.461Z,11.29
2018-03-24T09:53:45.735Z,11.30
2018-03-24T09:54:49.120Z,11.31
2018-03-24T09:55:53.266Z,11.31
2018-03-24T09:56:57.217Z,11.33
2018-03-24T09:58:00.594Z,11.34
2018-03-24T09:59:03.939Z,11.36
2018-03-24T10:00:07.262Z,11.39
2018-03-24T10:01:10.573Z,11.40
2018-03-24T10:02:13.881Z,11.41
2018-03-24T10:03:17.531Z,11.42
2018-03-24T10:04:20.916Z,11.43
2018-03-24T10:05:24.246Z,11.45
2018-03-24T10:06:27.627Z,11.47
2018-03-24T10:07:30.980Z,11.49
2018-03-24T10:08:34.343Z,11.51
2018-03-24T10:09:37.687Z,11.52
2018-03-24T10:10:40.990Z,11.55
2018-03-24T10:11:44.305Z,11.56
2018-03-24T10:12:47.670Z,11.57
2018-03-24T10:13:50.989Z,11.59
2018-03-24T10:14:54.319Z,11.62
2018-03-24T10:16:00.299Z,11.64
2018-03-24T10:17:03.590Z,11.65
2018-03-24T10:18:06.955Z,11.68
2018-03-24T10:19:10.306Z,11.69
2018-03-24T10:20:13.667Z,11.71
2018-03-24T10:23:07.513Z,11.69
2018-03-24T10:24:24.510Z,11.70
2018-03-24T10:25:27.891Z,11.71
2018-03-24T10:26:31.252Z,11.74
2018-03-24T10:27:34.602Z,11.78
2018-03-24T10:28:38.984Z,11.80
2018-03-24T10:29:42.362Z,11.84
2018-03-24T10:30:45.714Z,11.85
2018-03-24T10:31:49.219Z,11.88
2018-03-24T10:32:52.503Z,11.91
2018-03-24T10:34:01.678Z,11.92
2018-03-24T10:35:05.918Z,11.93
2018-03-24T10:36:09.332Z,11.95
2018-03-24T10:37:12.700Z,11.97
2018-03-24T10:38:16.017Z,11.98
2018-03-24T10:39:19.399Z,12.01
2018-03-24T10:40:22.717Z,12.05
2018-03-24T10:41:26.073Z,12.09
2018-03-24T10:42:29.424Z,12.12
2018-03-24T10:43:38.301Z,12.16
2018-03-24T10:44:41.634Z,12.19
2018-03-24T10:45:45.032Z,12.22
2018-03-24T10:46:48.417Z,12.23
2018-03-24T10:47:51.747Z,12.25
2018-03-24T10:48:55.080Z,12.28
2018-03-24T10:49:58.381Z,12.29
2018-03-24T10:51:01.697Z,12.31
2018-03-24T10:52:05.061Z,12.32
2018-03-24T10:53:08.430Z,12.34
2018-03-24T10:54:11.752Z,12.36
2018-03-24T10:55:16.601Z,12.38
2018-03-24T10:56:19.904Z,12.40
2018-03-24T10:57:24.204Z,12.41
2018-03-24T10:58:27.844Z,12.42
2018-03-24T10:59:31.166Z,12.43
2018-03-24T11:00:34.523Z,12.44
2018-03-24T11:01:38.572Z,12.45
2018-03-24T11:02:41.910Z,12.44
2018-03-24T11:03:46.861Z,12.43
2018-03-24T11:04:50.271Z,12.42
2018-03-24T11:05:53.605Z,12.40
2018-03-24T11:06:56.965Z,12.40
2018-03-24T11:08:00.283Z,12.39
2018-03-24T11:09:03.705Z,12.39
2018-03-24T11:10:07.036Z,12.37
2018-03-24T11:11:10.343Z,12.37
2018-03-24T11:12:13.690Z,12.36
2018-03-24T11:13:17.050Z,12.37
2018-03-24T11:14:20.372Z,12.37
2018-03-24T11:15:23.704Z,12.38
2018-03-24T11:16:27.062Z,12.40
2018-03-24T11:17:30.380Z,12.41
2018-03-24T11:18:33.723Z,12.43
2018-03-24T11:19:37.096Z,12.45
2018-03-24T11:20:40.492Z,12.46
2018-03-24T11:21:43.803Z,12.48
2018-03-24T11:22:47.175Z,12.49
2018-03-24T11:23:50.573Z,12.50
2018-03-24T11:24:53.884Z,12.51
2018-03-24T11:25:57.530Z,12.51
2018-03-24T11:27:00.910Z,12.51
2018-03-24T11:28:04.249Z,12.51
2018-03-24T11:29:07.650Z,12.53
2018-03-24T11:31:20.666Z,12.52
2018-03-24T11:32:23.955Z,12.53
2018-03-24T11:33:27.330Z,12.54
2018-03-24T11:34:30.861Z,12.56
2018-03-24T11:35:34.172Z,12.58
2018-03-24T11:36:37.513Z,12.59
2018-03-24T11:37:40.812Z,12.60
2018-03-24T11:38:44.131Z,12.61
2018-03-24T11:39:47.481Z,12.62
2018-03-24T11:40:50.812Z,12.63
2018-03-24T11:41:54.168Z,12.64
2018-03-24T11:42:57.522Z,12.65
2018-03-24T11:44:00.918Z,12.66
2018-03-24T11:45:04.368Z,12.67
2018-03-24T11:46:08.092Z,12.69
2018-03-24T11:47:11.457Z,12.71
2018-03-24T11:48:14.787Z,12.73
2018-03-24T11:49:18.104Z,12.74
2018-03-24T11:50:21.499Z,12.76
2018-03-24T11:51:24.822Z,12.79
2018-03-24T11:52:28.148Z,12.80
2018-03-24T11:53:43.204Z,12.82
2018-03-24T11:54:46.546Z,12.82
2018-03-24T11:55:49.897Z,12.84
2018-03-24T11:56:53.209Z,12.86
2018-03-24T11:57:56.520Z,12.88
2018-03-24T11:58:59.833Z,12.90
2018-03-24T12:00:09.182Z,12.92
2018-03-24T12:01:12.570Z,12.94
2018-03-24T12:02:15.952Z,12.97
2018-03-24T12:03:19.284Z,13.02
2018-03-24T12:04:23.712Z,13.08
2018-03-24T12:05:27.100Z,13.15
2018-03-24T12:06:30.463Z,13.21
2018-03-24T12:07:33.848Z,13.28
2018-03-24T12:08:37.262Z,13.36
2018-03-24T12:09:40.643Z,13.41
2018-03-24T12:10:43.947Z,13.48
2018-03-24T12:11:47.306Z,13.53
2018-03-24T12:12:50.611Z,13.56
2018-03-24T12:13:53.916Z,13.59
2018-03-24T12:14:57.295Z,13.61
2018-03-24T12:16:00.617Z,13.60
2018-03-24T12:17:04.004Z,13.60
2018-03-24T12:18:07.351Z,13.59
2018-03-24T12:19:10.669Z,13.59
2018-03-24T12:20:14.008Z,13.58
2018-03-24T12:21:17.393Z,13.58
2018-03-24T12:22:20.935Z,13.57
2018-03-24T12:23:24.273Z,13.57
2018-03-24T12:24:27.586Z,13.54
2018-03-24T12:25:30.911Z,13.53
2018-03-24T12:26:34.220Z,13.51
2018-03-24T12:27:37.661Z,13.50
2018-03-24T12:28:40.993Z,13.47
2018-03-24T12:29:44.344Z,13.45
2018-03-24T12:30:47.659Z,13.42
2018-03-24T12:31:51.000Z,13.41
2018-03-24T12:32:54.462Z,13.41
2018-03-24T12:33:57.824Z,13.40
2018-03-24T12:35:01.171Z,13.39
2018-03-24T12:36:04.520Z,13.37
2018-03-24T12:37:07.861Z,13.35
2018-03-24T12:38:11.251Z,13.34
2018-03-24T12:39:14.541Z,13.33
2018-03-24T12:40:17.852Z,13.31
2018-03-24T12:41:21.164Z,13.31
2018-03-24T12:42:24.554Z,13.31
2018-03-24T12:43:27.872Z,13.30
2018-03-24T12:44:31.234Z,13.30
2018-03-24T12:45:34.617Z,13.30
2018-03-24T12:46:38.047Z,13.30
2018-03-24T12:47:41.319Z,13.31
2018-03-24T12:48:44.721Z,13.31
2018-03-24T12:49:48.057Z,13.33
2018-03-24T12:50:52.376Z,13.32
2018-03-24T12:51:55.768Z,13.32
2018-03-24T12:52:59.099Z,13.33
2018-03-24T12:54:02.461Z,13.34
2018-03-24T12:55:05.756Z,13.34
2018-03-24T12:56:09.120Z,13.34
2018-03-24T12:57:12.578Z,13.36
2018-03-24T12:58:16.022Z,13.37
2018-03-24T12:59:19.347Z,13.37
2018-03-24T13:00:22.695Z,13.38
2018-03-24T13:01:26.030Z,13.37
2018-03-24T13:02:29.476Z,13.37
2018-03-24T13:03:32.791Z,13.37
2018-03-24T13:04:38.068Z,13.38
2018-03-24T13:05:41.922Z,13.39
2018-03-24T13:06:45.265Z,13.41
2018-03-24T13:07:48.660Z,13.42
2018-03-24T13:08:52.084Z,13.44
2018-03-24T13:09:55.405Z,13.46
2018-03-24T13:10:58.708Z,13.47
2018-03-24T13:12:02.025Z,13.48
2018-03-24T13:13:05.322Z,13.47
2018-03-24T13:14:08.638Z,13.45
2018-03-24T13:15:12.031Z,13.44
2018-03-24T13:16:15.332Z,13.42
2018-03-24T13:17:18.681Z,13.40
2018-03-24T13:18:21.991Z,13.39
2018-03-24T13:19:25.388Z,13.37
2018-03-24T13:20:28.725Z,13.37
2018-03-24T13:21:32.064Z,13.38
2018-03-24T13:22:35.453Z,13.38
2018-03-24T13:23:38.768Z,13.39
2018-03-24T13:24:42.087Z,13.38
2018-03-24T13:25:45.492Z,13.39
2018-03-24T13:26:48.887Z,13.39
2018-03-24T13:27:52.208Z,13.39
2018-03-24T13:28:55.517Z,13.39
2018-03-24T13:29:58.832Z,13.40
2018-03-24T13:31:02.270Z,13.40
2018-03-24T13:32:05.601Z,13.40
2018-03-24T13:33:09.012Z,13.42
2018-03-24T13:34:12.772Z,13.42
2018-03-24T13:35:16.112Z,13.44
2018-03-24T13:36:19.452Z,13.45
2018-03-24T13:37:22.829Z,13.46
2018-03-24T13:38:26.172Z,13.47
2018-03-24T13:39:29.533Z,13.48
2018-03-24T13:40:32.836Z,13.49
2018-03-24T13:41:36.215Z,13.51
2018-03-24T13:42:39.515Z,13.53
2018-03-24T13:43:42.896Z,13.53
2018-03-24T13:44:46.226Z,13.52
2018-03-24T13:45:49.544Z,13.50
2018-03-24T13:46:52.980Z,13.50
2018-03-24T13:47:56.232Z,13.48
2018-03-24T13:48:59.573Z,13.47
2018-03-24T13:50:02.881Z,13.46
2018-03-24T13:51:06.181Z,13.45
2018-03-24T13:52:09.760Z,13.46
2018-03-24T13:53:13.099Z,13.46
2018-03-24T13:54:16.433Z,13.48
2018-03-24T13:55:19.772Z,13.50
2018-03-24T13:56:23.128Z,13.52
2018-03-24T13:57:26.437Z,13.54